Time;durP1;ratioP1;P1;durP2;ratioP2;P2;SDS_P1;SDS_P2;PMS_P1;PMS_P2;Temp;Humidity;BMP_temperature;BMP_pressure;BME280_temperature;BME280_humidity;BME280_pressure;Samples;Min_cycle;Max_cycle;Signal;HPM_P1;HPM_P2
2024/02/07 00:00:59;;;;;;;10.18;3.83;;;;;;;8.91;39.64;93881.00;5026844;28;20049;-80
2024/02/07 00:03:25;;;;;;;10.38;3.45;;;;;;;8.90;39.89;93880.22;5027036;28;20028;-80
2024/02/07 00:05:51;;;;;;;10.02;3.22;;;;;;;8.92;39.51;93894.00;5026867;28;20022;-80
2024/02/07 00:08:16;;;;;;;8.98;3.22;;;;;;;8.88;39.96;93887.72;5026843;28;20338;-80
2024/02/07 00:10:42;;;;;;;6.63;3.25;;;;;;;8.84;40.10;93879.53;5026962;28;20312;-80
2024/02/07 00:13:08;;;;;;;9.50;4.50;;;;;;;8.90;40.08;93869.59;5025421;28;20030;-80
2024/02/07 00:15:33;;;;;;;7.60;3.78;;;;;;;8.89;40.15;93873.31;5026629;28;20029;-80
2024/02/07 00:17:59;;;;;;;8.48;3.53;;;;;;;8.87;40.24;93872.06;5026581;28;20201;-80
2024/02/07 00:20:24;;;;;;;7.18;2.80;;;;;;;8.82;40.20;93872.97;5026562;28;20028;-80
2024/02/07 00:22:49;;;;;;;7.53;3.30;;;;;;;8.84;40.43;93876.09;5025332;28;20264;-80
2024/02/07 00:25:15;;;;;;;7.78;3.08;;;;;;;8.85;40.40;93872.34;5026208;28;20030;-80
2024/02/07 00:27:40;;;;;;;11.82;3.55;;;;;;;8.86;40.28;93875.81;5026141;28;20079;-80
2024/02/07 00:30:06;;;;;;;7.72;3.50;;;;;;;8.80;40.43;93870.59;5025948;28;20044;-80
2024/02/07 00:32:32;;;;;;;9.50;3.63;;;;;;;8.77;40.77;93878.38;5025806;28;20045;-81
2024/02/07 00:34:57;;;;;;;11.60;3.65;;;;;;;8.68;40.92;93880.97;5025834;28;20101;-80
2024/02/07 00:37:23;;;;;;;7.22;3.92;;;;;;;8.64;40.86;93870.16;5025999;28;20312;-80
2024/02/07 00:39:48;;;;;;;8.35;3.33;;;;;;;8.59;41.01;93870.28;5025974;28;20327;-80
2024/02/07 00:42:14;;;;;;;6.10;3.42;;;;;;;8.47;41.36;93878.00;5025791;28;20052;-80
2024/02/07 00:44:40;;;;;;;8.27;3.50;;;;;;;8.42;41.55;93876.22;5025579;28;20090;-80
2024/02/07 00:47:05;;;;;;;11.20;3.65;;;;;;;8.45;41.65;93869.53;5025689;28;20093;-80
2024/02/07 00:49:31;;;;;;;8.05;3.22;;;;;;;8.43;41.54;93869.03;5025597;28;20044;-80
2024/02/07 00:51:57;;;;;;;12.70;3.60;;;;;;;8.46;41.67;93865.78;5025488;28;20390;-80
2024/02/07 00:54:24;;;;;;;12.55;3.70;;;;;;;8.47;41.61;93864.72;5025506;28;20030;-80
2024/02/07 00:56:49;;;;;;;7.85;3.45;;;;;;;8.47;41.73;93862.06;5025701;28;20317;-80
2024/02/07 00:59:15;;;;;;;10.25;3.17;;;;;;;8.36;42.14;93858.00;5025807;28;20056;-80
2024/02/07 01:01:40;;;;;;;8.23;3.05;;;;;;;8.28;42.33;93850.75;5024725;28;20316;-81
2024/02/07 01:04:06;;;;;;;8.65;3.10;;;;;;;8.33;42.17;93854.09;5025368;28;20049;-80
2024/02/07 01:06:31;;;;;;;11.98;3.20;;;;;;;8.34;42.15;93839.69;5025558;28;20088;-80
2024/02/07 01:08:57;;;;;;;10.18;3.75;;;;;;;8.36;42.13;93850.03;5025534;28;20029;-80
2024/02/07 01:11:22;;;;;;;7.95;3.15;;;;;;;8.33;42.06;93846.13;5025039;28;20026;-80
2024/02/07 01:13:49;;;;;;;5.70;3.00;;;;;;;8.36;42.25;93839.41;5025373;28;20025;-80
2024/02/07 01:16:15;;;;;;;9.10;3.20;;;;;;;8.41;42.27;93848.09;5025587;28;20213;-80
2024/02/07 01:18:40;;;;;;;9.65;3.88;;;;;;;8.43;42.05;93839.84;5025206;28;20033;-80
2024/02/07 01:21:08;;;;;;;8.00;2.85;;;;;;;8.39;42.28;93833.53;5025209;28;20324;-80
2024/02/07 01:23:34;;;;;;;7.85;3.53;;;;;;;8.36;42.55;93839.41;5025213;28;20233;-80
2024/02/07 01:26:01;;;;;;;9.88;3.28;;;;;;;8.33;42.85;93835.50;5024971;28;20039;-80
2024/02/07 01:28:27;;;;;;;9.98;3.25;;;;;;;8.32;43.24;93838.44;5024963;28;20052;-80
2024/02/07 01:30:53;;;;;;;7.00;3.08;;;;;;;8.34;43.07;93831.75;5024954;28;20104;-80
2024/02/07 01:33:18;;;;;;;7.70;3.22;;;;;;;8.33;42.79;93824.09;5024941;28;20033;-80
2024/02/07 01:35:44;;;;;;;7.25;3.42;;;;;;;8.22;43.09;93823.50;5024812;28;20052;-80
2024/02/07 01:38:17;;;;;;;9.80;3.90;;;;;;;8.19;43.15;93813.50;5024973;28;20025;-80
2024/02/07 01:40:43;;;;;;;10.10;4.28;;;;;;;8.10;43.63;93810.78;5024928;28;20251;-80
2024/02/07 01:43:12;;;;;;;10.25;4.10;;;;;;;8.00;44.15;93819.72;5023316;28;20105;-80
2024/02/07 01:45:39;;;;;;;9.50;3.92;;;;;;;7.97;44.45;93820.31;5024567;28;20025;-80
2024/02/07 01:48:06;;;;;;;10.73;3.72;;;;;;;7.94;44.38;93812.94;5024365;28;20201;-80
2024/02/07 01:50:34;;;;;;;13.13;4.72;;;;;;;7.92;44.53;93809.81;5024493;28;20025;-80
2024/02/07 01:53:02;;;;;;;9.43;3.97;;;;;;;7.86;44.84;93807.53;5024107;28;20052;-80
2024/02/07 01:55:28;;;;;;;8.68;3.45;;;;;;;7.86;44.59;93804.88;5024289;28;20026;-80
2024/02/07 01:57:56;;;;;;;11.60;4.38;;;;;;;7.81;44.80;93805.78;5024486;28;20026;-80
2024/02/07 02:00:21;;;;;;;7.85;3.85;;;;;;;7.76;45.54;93809.31;5024377;28;20022;-80
2024/02/07 02:02:51;;;;;;;10.40;4.35;;;;;;;7.61;45.75;93809.63;5024414;28;20095;-80
2024/02/07 02:05:16;;;;;;;9.73;4.10;;;;;;;7.59;45.69;93820.53;5024480;28;20017;-80
2024/02/07 02:07:42;;;;;;;13.00;4.03;;;;;;;7.54;45.85;93819.84;5024116;28;20320;-80
2024/02/07 02:10:08;;;;;;;7.95;3.72;;;;;;;7.52;46.01;93816.69;5024111;28;20046;-80
2024/02/07 02:12:35;;;;;;;11.63;4.40;;;;;;;7.44;46.19;93810.22;5024160;28;20052;-80
2024/02/07 02:15:00;;;;;;;9.85;4.28;;;;;;;7.44;46.25;93826.91;5024183;28;20045;-80
2024/02/07 02:17:26;;;;;;;10.70;4.40;;;;;;;7.48;46.16;93826.31;5024282;28;20041;-80
2024/02/07 02:19:51;;;;;;;8.60;4.45;;;;;;;7.39;46.53;93818.28;5024542;28;20332;-80
2024/02/07 02:22:32;;;;;;;8.70;4.50;;;;;;;7.36;46.72;93819.63;5024322;28;20072;-80
2024/02/07 02:25:30;;;;;;;15.15;4.57;;;;;;;7.30;47.02;93820.03;5024512;28;20224;-80
2024/02/07 02:28:01;;;;;;;10.60;3.97;;;;;;;7.28;46.87;93822.97;5023994;28;20319;-80
2024/02/07 02:30:33;;;;;;;9.55;4.03;;;;;;;7.25;46.95;93818.25;5024080;28;20021;-80
2024/02/07 02:33:08;;;;;;;9.07;4.15;;;;;;;7.25;47.02;93818.25;5023969;28;20140;-80
2024/02/07 02:35:35;;;;;;;8.95;3.60;;;;;;;7.25;47.14;93817.47;5023680;28;20110;-80
2024/02/07 02:38:01;;;;;;;8.93;4.13;;;;;;;7.22;47.34;93810.88;5024206;28;20096;-80
2024/02/07 02:40:29;;;;;;;11.15;3.53;;;;;;;7.15;47.56;93805.97;5023748;28;20025;-80
2024/02/07 02:42:57;;;;;;;8.32;3.28;;;;;;;7.16;47.51;93807.53;5023482;28;20021;-80
2024/02/07 02:45:23;;;;;;;9.40;4.03;;;;;;;7.10;47.98;93799.97;5023368;28;20037;-80
2024/02/07 02:47:48;;;;;;;10.13;3.92;;;;;;;7.12;48.11;93805.75;5023305;28;20021;-80
2024/02/07 02:50:15;;;;;;;9.07;3.47;;;;;;;7.09;48.22;93801.06;5022368;28;20026;-80
2024/02/07 02:52:41;;;;;;;11.85;4.78;;;;;;;7.08;48.53;93805.53;5023825;28;20050;-80
2024/02/07 02:55:07;;;;;;;9.80;4.32;;;;;;;7.07;48.43;93811.16;5023720;28;20458;-80
2024/02/07 02:57:33;;;;;;;8.65;4.03;;;;;;;7.05;48.61;93802.72;5023527;28;20053;-80
2024/02/07 03:00:06;;;;;;;13.63;4.57;;;;;;;6.97;48.74;93804.94;5023502;28;20021;-80
2024/02/07 03:02:32;;;;;;;9.63;3.78;;;;;;;6.99;48.94;93800.13;5023151;28;20089;-80
2024/02/07 03:04:58;;;;;;;10.40;4.35;;;;;;;6.95;48.95;93804.44;5023361;28;20025;-80
2024/02/07 03:07:43;;;;;;;10.23;4.00;;;;;;;6.96;49.05;93805.22;5023184;28;20064;-81
2024/02/07 03:10:10;;;;;;;9.43;4.05;;;;;;;6.85;49.39;93801.97;5023187;28;20026;-80
2024/02/07 03:12:35;;;;;;;10.38;3.78;;;;;;;6.79;49.48;93814.50;5023164;28;20013;-80
2024/02/07 03:15:01;;;;;;;10.35;3.65;;;;;;;6.75;49.67;93804.78;5023015;28;20076;-80
2024/02/07 03:17:26;;;;;;;8.75;3.90;;;;;;;6.69;49.84;93798.00;5023076;28;20029;-80
2024/02/07 03:19:52;;;;;;;10.60;3.45;;;;;;;6.66;50.04;93807.31;5022923;28;20025;-80
2024/02/07 03:22:17;;;;;;;9.65;4.00;;;;;;;6.57;50.29;93796.59;5023356;28;20026;-80
2024/02/07 03:24:43;;;;;;;10.07;3.72;;;;;;;6.55;50.62;93797.94;5026008;28;20017;-80
2024/02/07 03:27:11;;;;;;;11.52;4.28;;;;;;;6.49;50.57;93797.22;5029560;28;20025;-80
2024/02/07 03:29:37;;;;;;;10.50;3.20;;;;;;;6.43;50.58;93791.25;5029618;28;20040;-80
2024/02/07 03:32:03;;;;;;;12.13;4.35;;;;;;;6.41;51.05;93803.19;5029624;28;20220;-80
2024/02/07 03:34:30;;;;;;;6.40;3.60;;;;;;;6.42;51.08;93802.13;5029426;28;20028;-80
2024/02/07 03:36:55;;;;;;;8.23;3.60;;;;;;;6.38;51.25;93796.59;5028238;28;20101;-80
2024/02/07 03:39:22;;;;;;;9.75;3.60;;;;;;;6.30;51.54;93791.19;5028173;28;20033;-80
2024/02/07 03:41:48;;;;;;;9.05;3.25;;;;;;;6.28;51.67;93801.28;5029481;28;20025;-80
2024/02/07 03:44:13;;;;;;;8.90;3.80;;;;;;;6.19;51.87;93793.97;5029412;28;20057;-80
2024/02/07 03:46:42;;;;;;;13.88;4.50;;;;;;;6.21;52.02;93797.13;5029617;28;20037;-80
2024/02/07 03:49:07;;;;;;;14.13;3.85;;;;;;;6.21;52.06;93791.84;5029514;28;20045;-80
2024/02/07 03:51:35;;;;;;;8.13;3.80;;;;;;;6.20;52.18;93786.81;5029110;28;20235;-80
2024/02/07 03:54:10;;;;;;;7.18;3.60;;;;;;;6.16;51.93;93783.16;5029173;28;20140;-80
2024/02/07 03:56:35;;;;;;;11.40;4.10;;;;;;;6.12;52.36;93782.94;5029391;28;20026;-80
2024/02/07 03:59:02;;;;;;;9.32;4.40;;;;;;;6.15;52.40;93792.19;5029450;28;20316;-80
2024/02/07 04:01:31;;;;;;;12.77;4.10;;;;;;;6.21;52.43;93788.41;5029504;28;20017;-80
2024/02/07 04:03:57;;;;;;;15.20;3.95;;;;;;;6.22;52.27;93790.75;5029257;28;20300;-80
2024/02/07 04:06:23;;;;;;;15.30;3.97;;;;;;;6.16;52.54;93781.31;5029020;28;20087;-80
2024/02/07 04:08:48;;;;;;;10.38;4.30;;;;;;;6.13;52.77;93779.25;5029219;28;20029;-79
2024/02/07 05:16:17;;;;;;;12.45;4.63;;;;;;;6.27;54.26;93752.03;5025487;28;20352;-80
2024/02/07 05:18:42;;;;;;;14.10;4.10;;;;;;;6.30;54.08;93740.88;5025514;28;20021;-80
2024/02/07 05:21:11;;;;;;;14.13;5.13;;;;;;;6.34;53.94;93744.53;5025626;28;20080;-80
2024/02/07 05:23:36;;;;;;;12.05;4.55;;;;;;;6.32;53.91;93742.16;5025401;28;20231;-80
2024/02/07 05:26:05;;;;;;;10.40;4.85;;;;;;;6.31;53.92;93745.09;5025677;28;20018;-80
2024/02/07 05:28:30;;;;;;;9.40;4.55;;;;;;;6.30;54.00;93756.78;5025729;28;20319;-80
2024/02/07 05:30:56;;;;;;;13.18;4.50;;;;;;;6.31;53.75;93764.44;5025179;28;20025;-80
2024/02/07 05:33:21;;;;;;;11.27;4.65;;;;;;;6.30;53.69;93762.06;5024288;28;20025;-80
2024/02/07 05:35:47;;;;;;;13.38;3.40;;;;;;;6.35;53.46;93765.44;5025200;28;20041;-80
2024/02/07 05:38:13;;;;;;;9.60;4.30;;;;;;;6.42;53.12;93771.13;5025141;28;20312;-80
2024/02/07 05:40:38;;;;;;;13.02;4.00;;;;;;;6.41;53.30;93768.75;5025161;28;20018;-80
2024/02/07 05:43:05;;;;;;;9.05;4.55;;;;;;;6.48;52.87;93760.47;5024762;28;20028;-80
2024/02/07 05:45:30;;;;;;;12.20;4.20;;;;;;;6.51;52.82;93765.94;5026217;28;20060;-80
2024/02/07 05:47:55;;;;;;;9.85;4.70;;;;;;;6.57;53.07;93762.19;5024658;28;20315;-80
2024/02/07 05:50:22;;;;;;;14.63;5.25;;;;;;;6.60;52.99;93758.94;5024684;28;20018;-80
2024/02/07 05:52:47;;;;;;;17.70;6.10;;;;;;;6.63;53.39;93766.31;5023535;28;20046;-80
2024/02/07 05:55:13;;;;;;;22.85;6.05;;;;;;;6.65;53.44;93762.56;5024526;28;20026;-80
2024/02/07 05:57:38;;;;;;;11.40;4.90;;;;;;;6.59;53.53;93764.50;5024314;28;20049;-80
2024/02/07 06:00:05;;;;;;;16.63;5.82;;;;;;;6.58;53.48;93771.69;5024401;28;20013;-80
2024/02/07 06:02:31;;;;;;;23.25;6.40;;;;;;;6.66;53.38;93774.75;5024885;28;20056;-80
2024/02/07 06:05:01;;;;;;;13.32;4.82;;;;;;;6.69;53.33;93763.56;5024400;28;20312;-80
2024/02/07 06:07:27;;;;;;;23.90;5.30;;;;;;;6.73;53.27;93777.81;5024184;28;20030;-80
2024/02/07 06:09:52;;;;;;;14.52;6.20;;;;;;;6.73;53.25;93786.53;5023092;28;20028;-80
2024/02/07 06:12:20;;;;;;;16.50;5.95;;;;;;;6.76;53.45;93779.88;5024042;28;20067;-80
2024/02/07 06:14:45;;;;;;;18.27;5.90;;;;;;;6.79;53.20;93776.63;5024093;28;20053;-80
2024/02/07 06:17:11;;;;;;;19.83;7.00;;;;;;;6.82;53.32;93771.56;5024305;28;20026;-80
2024/02/07 06:19:36;;;;;;;27.45;6.68;;;;;;;6.87;53.32;93775.97;5024348;28;20021;-80
2024/02/07 06:22:05;;;;;;;15.30;5.78;;;;;;;6.95;53.29;93780.59;5023916;28;20018;-80
2024/02/07 06:24:31;;;;;;;18.67;6.90;;;;;;;6.97;53.14;93769.72;5023944;28;20293;-80
2024/02/07 06:26:57;;;;;;;13.05;6.22;;;;;;;7.03;53.23;93771.97;5023701;28;20026;-80
2024/02/07 06:29:22;;;;;;;17.88;7.20;;;;;;;7.11;53.34;93775.81;5023700;28;20029;-80
2024/02/07 06:31:48;;;;;;;24.88;6.40;;;;;;;7.18;53.20;93773.56;5024039;28;20233;-80
2024/02/07 06:34:13;;;;;;;21.38;7.18;;;;;;;7.25;53.12;93775.06;5024078;28;20018;-80
2024/02/07 06:36:39;;;;;;;20.80;7.57;;;;;;;7.32;53.39;93776.22;5023757;28;20038;-80
2024/02/07 06:39:04;;;;;;;16.58;6.47;;;;;;;7.38;53.29;93790.94;5024023;28;20051;-80
2024/02/07 06:41:30;;;;;;;21.30;7.05;;;;;;;7.37;53.18;93784.09;5023876;28;20018;-80
2024/02/07 06:43:55;;;;;;;18.38;6.53;;;;;;;7.44;52.93;93789.00;5023384;28;20057;-80
2024/02/07 06:46:20;;;;;;;16.83;6.90;;;;;;;7.50;52.89;93789.69;5023533;28;20013;-80
2024/02/07 06:48:46;;;;;;;14.93;6.43;;;;;;;7.57;52.49;93787.41;5023831;28;20154;-80
2024/02/07 06:51:11;;;;;;;30.95;7.28;;;;;;;7.67;52.74;93781.13;5023234;28;20033;-80
2024/02/07 06:53:37;;;;;;;24.52;7.18;;;;;;;7.78;52.73;93785.94;5023579;28;20096;-80
2024/02/07 06:56:02;;;;;;;21.15;7.97;;;;;;;7.87;52.58;93787.91;5023358;28;20194;-80
2024/02/07 06:58:30;;;;;;;13.23;6.00;;;;;;;7.98;52.09;93782.09;5023203;28;20144;-80
2024/02/07 07:00:57;;;;;;;13.30;6.18;;;;;;;8.12;51.87;93771.44;5023104;28;20017;-80
2024/02/07 07:03:25;;;;;;;18.73;6.18;;;;;;;8.26;51.61;93768.72;5023384;28;20068;-80
2024/02/07 07:05:50;;;;;;;15.05;6.53;;;;;;;8.39;51.30;93765.25;5023272;28;20021;-80
2024/02/07 07:08:16;;;;;;;20.25;7.00;;;;;;;8.48;51.41;93773.28;5023618;28;20025;-81
2024/02/07 07:10:42;;;;;;;30.40;9.52;;;;;;;8.62;51.32;93787.31;5023302;28;20220;-80
2024/02/07 07:13:08;;;;;;;30.60;11.23;;;;;;;8.74;51.00;93781.44;5023171;28;20285;-80
2024/02/07 07:15:33;;;;;;;34.80;9.50;;;;;;;8.86;51.03;93783.56;5022849;28;20129;-80
2024/02/07 07:17:59;;;;;;;17.88;8.60;;;;;;;8.94;50.57;93772.19;5022987;28;20240;-80
2024/02/07 07:20:24;;;;;;;24.00;8.73;;;;;;;9.03;50.34;93783.66;5023128;28;20026;-80
2024/02/07 07:22:50;;;;;;;18.50;8.05;;;;;;;9.11;49.92;93771.50;5022692;28;20149;-80
2024/02/07 07:25:15;;;;;;;19.27;8.05;;;;;;;9.20;49.71;93776.88;5023258;28;20044;-80
2024/02/07 07:27:41;;;;;;;14.98;6.70;;;;;;;9.30;49.27;93760.66;5023072;28;20021;-80
2024/02/07 07:30:07;;;;;;;26.20;6.68;;;;;;;9.37;49.32;93762.88;5022777;28;20304;-80
2024/02/07 07:32:32;;;;;;;18.77;6.90;;;;;;;9.47;49.13;93764.47;5022857;28;20244;-80
2024/02/07 07:34:58;;;;;;;15.45;6.22;;;;;;;9.53;48.97;93765.91;5022595;28;20022;-80
2024/02/07 07:37:23;;;;;;;19.13;6.93;;;;;;;9.57;48.57;93764.97;5023089;28;20212;-80
2024/02/07 07:39:49;;;;;;;18.85;6.53;;;;;;;9.66;48.31;93767.66;5022923;28;20089;-80
2024/02/07 07:42:15;;;;;;;34.53;6.65;;;;;;;9.76;48.26;93772.69;5022750;28;20196;-80
2024/02/07 07:44:42;;;;;;;35.22;6.00;;;;;;;9.81;48.10;93769.09;5022701;28;20028;-80
2024/02/07 07:47:09;;;;;;;17.50;6.60;;;;;;;9.78;48.19;93775.03;5022477;28;20030;-80
2024/02/07 07:49:35;;;;;;;20.95;6.57;;;;;;;9.77;48.09;93763.63;5022690;28;20025;-80
2024/02/07 07:52:00;;;;;;;32.83;6.43;;;;;;;9.82;48.19;93760.78;5022363;28;20045;-80
2024/02/07 07:54:26;;;;;;;23.15;5.75;;;;;;;9.90;47.97;93761.91;5022763;28;20045;-80
2024/02/07 07:56:51;;;;;;;24.65;6.18;;;;;;;9.95;47.84;93761.78;5023016;28;20076;-80
2024/02/07 07:59:17;;;;;;;13.88;6.38;;;;;;;9.96;48.10;93754.56;5022969;28;20320;-80
2024/02/07 08:01:42;;;;;;;31.40;6.57;;;;;;;10.02;47.79;93770.06;5021562;28;20022;-79
2024/02/07 08:04:08;;;;;;;20.52;6.68;;;;;;;10.08;47.86;93757.41;5022563;28;20033;-80
2024/02/07 08:06:34;;;;;;;24.80;7.10;;;;;;;10.09;47.76;93750.19;5022415;28;20064;-80
2024/02/07 08:08:59;;;;;;;23.52;6.78;;;;;;;10.16;47.71;93742.53;5021126;28;20042;-80
2024/02/07 08:11:25;;;;;;;23.40;6.38;;;;;;;10.20;47.42;93749.56;5023480;28;20100;-80
2024/02/07 08:13:50;;;;;;;25.17;7.50;;;;;;;10.20;47.13;93733.59;5026297;28;20033;-79
2024/02/07 08:16:15;;;;;;;27.33;6.47;;;;;;;10.27;47.19;93737.66;5026072;28;20056;-80
2024/02/07 08:18:43;;;;;;;29.23;6.63;;;;;;;10.32;46.91;93725.00;5026612;28;20052;-80
2024/02/07 08:21:09;;;;;;;34.60;6.50;;;;;;;10.41;46.53;93733.00;5026019;28;20030;-80
2024/02/07 08:23:34;;;;;;;19.33;6.43;;;;;;;10.46;46.50;93726.72;5026012;28;20024;-80
2024/02/07 08:25:59;;;;;;;15.60;6.05;;;;;;;10.54;46.42;93725.91;5025844;28;20025;-80
2024/02/07 08:28:25;;;;;;;19.40;5.88;;;;;;;10.58;46.42;93727.66;5026164;28;20029;-80
2024/02/07 08:30:50;;;;;;;22.30;6.57;;;;;;;10.69;46.22;93719.34;5025852;28;20030;-80
2024/02/07 08:33:16;;;;;;;21.73;6.30;;;;;;;10.79;45.70;93725.09;5025968;28;20030;-80
2024/02/07 08:35:41;;;;;;;25.20;6.93;;;;;;;10.91;45.76;93713.78;5025829;28;20022;-80
2024/02/07 08:38:07;;;;;;;17.08;6.40;;;;;;;11.03;45.63;93713.91;5025931;28;20037;-80
2024/02/07 08:40:32;;;;;;;19.35;6.13;;;;;;;11.15;45.50;93713.22;5025744;28;20089;-80
2024/02/07 08:42:59;;;;;;;14.55;5.50;;;;;;;11.23;45.27;93701.75;5025773;28;20045;-80
2024/02/07 08:45:24;;;;;;;25.77;5.63;;;;;;;11.40;44.88;93706.22;5025436;28;20018;-81
2024/02/07 08:47:50;;;;;;;15.52;6.28;;;;;;;11.49;44.65;93710.75;5025333;28;20041;-80
2024/02/07 08:50:17;;;;;;;16.98;6.53;;;;;;;11.59;43.53;93710.38;5025428;28;20227;-80
2024/02/07 08:52:43;;;;;;;25.30;6.85;;;;;;;11.61;43.79;93714.28;5025462;28;20137;-80
2024/02/07 08:55:09;;;;;;;22.98;6.10;;;;;;;11.67;44.18;93708.75;5025365;28;20034;-80
2024/02/07 08:57:39;;;;;;;10.68;5.32;;;;;;;11.83;44.31;93715.09;5025326;28;20046;-80
2024/02/07 09:00:05;;;;;;;19.75;5.75;;;;;;;11.99;43.94;93723.38;5025319;28;20317;-80
2024/02/07 09:02:31;;;;;;;16.63;5.03;;;;;;;12.05;43.93;93722.06;5025008;28;20097;-80
2024/02/07 09:05:03;;;;;;;24.70;5.32;;;;;;;12.09;44.21;93711.50;5025024;28;20031;-80
2024/02/07 09:07:28;;;;;;;21.83;5.05;;;;;;;12.19;44.68;93706.56;5025029;28;20040;-80
2024/02/07 09:09:54;;;;;;;18.10;5.68;;;;;;;12.24;45.02;93695.66;5023739;28;20057;-80
2024/02/07 09:12:19;;;;;;;15.73;5.18;;;;;;;12.33;45.35;93695.56;5025405;28;20034;-80
2024/02/07 09:14:45;;;;;;;20.98;4.35;;;;;;;12.40;45.79;93693.16;5025376;28;20025;-80
2024/02/07 09:17:10;;;;;;;14.20;4.57;;;;;;;12.51;45.46;93690.88;5025150;28;20093;-80
2024/02/07 09:19:35;;;;;;;31.83;7.00;;;;;;;12.62;45.02;93692.03;5025106;28;20391;-80
2024/02/07 09:22:01;;;;;;;24.08;6.60;;;;;;;12.83;44.66;93697.31;5024432;28;20040;-80
2024/02/07 09:24:26;;;;;;;27.38;8.02;;;;;;;13.00;43.94;93688.31;5025155;28;20053;-80
2024/02/07 09:26:53;;;;;;;22.30;7.70;;;;;;;13.17;43.32;93695.38;5025376;28;20022;-80
2024/02/07 09:29:19;;;;;;;28.17;7.60;;;;;;;13.31;42.63;93684.41;5025045;28;20022;-80
2024/02/07 09:31:45;;;;;;;56.50;9.30;;;;;;;13.41;42.90;93683.94;5025291;28;20025;-80
2024/02/07 09:34:11;;;;;;;33.50;8.20;;;;;;;13.58;42.72;93688.28;5024957;28;20030;-80
2024/02/07 09:36:38;;;;;;;25.05;8.38;;;;;;;13.67;42.40;93688.16;5024739;28;20109;-80
2024/02/07 09:39:04;;;;;;;37.13;9.10;;;;;;;13.77;41.92;93685.03;5024924;28;20025;-80
2024/02/07 09:41:32;;;;;;;26.95;9.40;;;;;;;13.88;41.79;93684.56;5024716;28;20087;-80
2024/02/07 09:43:59;;;;;;;41.42;9.27;;;;;;;13.98;41.82;93674.19;5023115;28;20026;-80
2024/02/07 09:46:28;;;;;;;30.85;7.90;;;;;;;14.09;41.61;93652.28;5024624;28;20018;-80
2024/02/07 09:48:55;;;;;;;22.63;8.82;;;;;;;14.14;41.72;93652.78;5024351;28;20032;-80
2024/02/07 09:51:21;;;;;;;23.30;6.63;;;;;;;14.06;41.53;93645.66;5024175;28;20067;-80
2024/02/07 09:53:48;;;;;;;20.92;7.00;;;;;;;14.22;41.74;93649.19;5024331;28;20033;-80
2024/02/07 09:56:15;;;;;;;24.17;6.18;;;;;;;14.34;41.25;93643.00;5024837;28;20212;-80
2024/02/07 09:58:42;;;;;;;24.17;6.85;;;;;;;14.46;41.44;93634.13;5024545;28;20037;-80
2024/02/07 10:01:09;;;;;;;32.92;7.50;;;;;;;14.56;40.90;93633.66;5024577;28;20233;-80
2024/02/07 10:03:39;;;;;;;34.30;6.60;;;;;;;14.68;40.72;93626.69;5023970;28;20033;-80
2024/02/07 10:06:06;;;;;;;17.08;6.82;;;;;;;14.75;40.69;93622.25;5023971;28;20025;-80
2024/02/07 10:08:32;;;;;;;21.40;6.65;;;;;;;14.78;40.16;93626.94;5023858;28;20026;-80
2024/02/07 10:10:59;;;;;;;15.52;6.05;;;;;;;14.82;40.17;93613.63;5023722;28;20284;-80
2024/02/07 10:13:25;;;;;;;21.17;4.68;;;;;;;14.80;39.78;93605.16;5024014;28;20056;-80
2024/02/07 10:15:51;;;;;;;14.75;5.68;;;;;;;14.85;39.91;93608.34;5023681;28;20025;-80
2024/02/07 10:18:16;;;;;;;16.02;5.38;;;;;;;14.89;40.42;93600.38;5023815;28;20025;-80
2024/02/07 10:20:52;;;;;;;19.48;4.65;;;;;;;14.97;40.21;93604.78;5023753;28;20036;-80
2024/02/07 10:23:18;;;;;;;21.42;6.65;;;;;;;14.91;40.30;93590.09;5023837;28;20261;-80
2024/02/07 10:25:54;;;;;;;23.23;5.45;;;;;;;14.94;39.90;93597.44;5023831;28;20021;-80
2024/02/07 10:28:21;;;;;;;34.38;14.18;;;;;;;15.00;39.72;93587.22;5023836;28;20044;-80
2024/02/07 10:30:59;;;;;;;23.23;8.43;;;;;;;15.02;39.68;93584.97;5024175;28;20029;-80
2024/02/07 10:33:35;;;;;;;19.58;6.50;;;;;;;15.01;39.41;93575.38;5023122;28;20375;-80
2024/02/07 10:36:04;;;;;;;37.40;10.60;;;;;;;14.87;39.32;93575.81;5022940;28;20026;-80
2024/02/07 10:38:32;;;;;;;20.90;7.13;;;;;;;14.97;39.29;93577.97;5023419;28;20032;-80
2024/02/07 10:41:00;;;;;;;18.80;4.63;;;;;;;15.07;39.41;93565.16;5023274;28;20374;-80
2024/02/07 10:43:26;;;;;;;12.35;3.03;;;;;;;15.07;38.41;93576.66;5023167;28;20038;-79
2024/02/07 10:46:03;;;;;;;8.07;2.97;;;;;;;15.12;38.38;93567.56;5023165;28;20028;-80
2024/02/07 10:48:29;;;;;;;17.23;3.05;;;;;;;15.20;38.61;93555.84;5023487;28;20092;-80
2024/02/07 10:50:56;;;;;;;16.23;3.90;;;;;;;15.21;38.71;93554.75;5023219;28;20032;-80
2024/02/07 10:53:22;;;;;;;6.32;2.83;;;;;;;15.17;39.07;93548.50;5022983;28;20092;-80
2024/02/07 10:55:48;;;;;;;7.88;3.40;;;;;;;15.28;38.98;93548.75;5023039;28;20046;-80
2024/02/07 10:58:17;;;;;;;8.45;3.40;;;;;;;15.21;38.40;93536.72;5022256;28;20075;-80
2024/02/07 11:00:44;;;;;;;14.45;2.85;;;;;;;15.20;38.51;93527.13;5023316;28;20053;-80
2024/02/07 11:03:11;;;;;;;10.38;3.03;;;;;;;15.25;38.70;93536.81;5023039;28;20132;-80
2024/02/07 11:05:39;;;;;;;14.50;3.33;;;;;;;15.26;38.54;93541.03;5023058;28;20309;-80
2024/02/07 11:08:06;;;;;;;9.20;3.45;;;;;;;15.25;39.00;93518.78;5022911;28;20026;-80
2024/02/07 11:10:33;;;;;;;9.93;3.25;;;;;;;15.29;38.57;93518.88;5022997;28;20056;-80
2024/02/07 11:12:59;;;;;;;19.75;4.15;;;;;;;15.37;38.84;93522.50;5022963;28;20021;-80
2024/02/07 11:15:25;;;;;;;10.13;2.80;;;;;;;15.37;38.85;93519.81;5022761;28;20375;-80
2024/02/07 11:17:50;;;;;;;14.13;3.50;;;;;;;15.36;39.15;93516.31;5022824;28;20026;-80
2024/02/07 11:20:16;;;;;;;8.77;2.97;;;;;;;15.34;38.26;93505.16;5023105;28;20037;-80
2024/02/07 11:22:47;;;;;;;9.68;3.13;;;;;;;15.44;38.72;93509.19;5022752;28;20049;-80
2024/02/07 11:25:17;;;;;;;17.05;5.00;;;;;;;15.56;38.12;93511.00;5023097;28;20029;-80
2024/02/07 11:27:42;;;;;;;10.05;2.92;;;;;;;15.65;38.29;93508.84;5023153;28;20014;-80
2024/02/07 11:30:11;;;;;;;11.82;2.85;;;;;;;15.74;37.84;93501.41;5022706;28;20049;-80
2024/02/07 11:32:38;;;;;;;6.68;3.63;;;;;;;15.86;37.76;93499.72;5022628;28;20022;-80
2024/02/07 11:35:07;;;;;;;20.63;3.20;;;;;;;15.90;36.98;93495.19;5022518;28;20232;-80
2024/02/07 11:37:35;;;;;;;12.18;3.08;;;;;;;15.93;37.07;93489.09;5022495;28;20022;-80
2024/02/07 11:40:06;;;;;;;14.82;3.00;;;;;;;16.02;37.67;93490.44;5023247;28;20022;-80
2024/02/07 11:42:37;;;;;;;15.85;3.10;;;;;;;16.07;37.52;93483.19;5022558;28;20045;-80
2024/02/07 11:45:04;;;;;;;10.35;2.67;;;;;;;16.11;37.08;93484.03;5023169;28;20339;-80
2024/02/07 11:47:33;;;;;;;18.73;4.93;;;;;;;16.24;36.88;93480.84;5027064;28;20021;-80
2024/02/07 11:50:07;;;;;;;8.65;3.25;;;;;;;16.39;36.27;93475.69;5027006;28;20030;-80
2024/02/07 11:52:34;;;;;;;9.25;3.38;;;;;;;16.47;36.40;93474.69;5026193;28;20117;-80
2024/02/07 11:55:11;;;;;;;6.80;3.08;;;;;;;16.55;36.39;93459.44;5026458;28;20073;-80
2024/02/07 11:57:42;;;;;;;6.78;2.65;;;;;;;16.64;36.18;93455.34;5026514;28;20231;-80
2024/02/07 12:00:11;;;;;;;25.40;5.53;;;;;;;16.75;35.33;93449.34;5026568;28;20340;-80
2024/02/07 12:02:37;;;;;;;9.63;3.75;;;;;;;16.86;34.66;93455.72;5026323;28;20511;-80
2024/02/07 12:05:06;;;;;;;8.77;3.50;;;;;;;16.95;35.12;93450.81;5026269;28;20060;-79
2024/02/07 12:07:32;;;;;;;9.27;3.10;;;;;;;17.05;35.04;93425.97;5026073;28;20037;-80
2024/02/07 12:09:57;;;;;;;24.50;3.78;;;;;;;17.11;34.85;93431.06;5026272;28;20056;-79
2024/02/07 12:12:24;;;;;;;8.80;3.80;;;;;;;17.21;34.51;93416.94;5024910;28;20057;-80
2024/02/07 12:14:50;;;;;;;11.32;4.55;;;;;;;17.28;33.52;93419.75;5026001;28;20025;-80
2024/02/07 12:17:16;;;;;;;14.57;3.60;;;;;;;17.32;33.18;93406.31;5026113;28;20217;-80
2024/02/07 12:19:43;;;;;;;13.10;3.88;;;;;;;17.35;32.90;93409.06;5025879;28;20063;-80
2024/02/07 12:22:14;;;;;;;32.53;4.30;;;;;;;17.42;32.35;93400.28;5025924;28;20036;-80
2024/02/07 12:24:41;;;;;;;21.58;3.60;;;;;;;17.52;31.68;93405.00;5025928;28;20021;-80
2024/02/07 12:27:14;;;;;;;24.80;2.75;;;;;;;17.64;31.30;93393.22;5025917;28;20045;-80
2024/02/07 12:29:49;;;;;;;10.93;2.78;;;;;;;17.59;30.45;93388.16;5025870;28;20033;-80
2024/02/07 12:32:15;;;;;;;12.35;2.95;;;;;;;17.68;30.61;93398.66;5025852;28;20331;-80
2024/02/07 12:34:42;;;;;;;11.13;2.92;;;;;;;17.81;30.34;93387.25;5026091;28;20112;-80